KCRX

Roscoe Turner Airport

Corinth, Mississippi, USA
METAR KCRX 191235Z AUTO 00000KT 8SM CLR 20/19 A3001 RMK AO2
Observed Flight Rules
Sep-19 @ 12:35 UTC (20 minutes ago) Visual Flight Rules
Visibility Clouds
8 miles
  • Clear skies
Temperatures Readings
Current 20°C / 68°F
Dewpoint 19°C / 66°F
Humidity 94%
Altimeter 30.01" Hg
Pressure 1016 hPa
Elevation 130
METAR KCRX 191235Z AUTO 00000KT 8SM CLR 20/19 A3001 RMK AO2
Observed Flight Rules
Sep-19 @ 12:35 UTC
(20 minutes ago)
VFR
Clouds
  • Clear skies
Temperature Dewpoint
20°C / 68°F 19°C / 66°F
Humidity Altimeter Pressure
94% 30.01" Hg 1016 hPa